Time;durP1;ratioP1;P1;durP2;ratioP2;P2;SDS_P1;SDS_P2;PMS_P1;PMS_P2;Temp;Humidity;BMP_temperature;BMP_pressure;BME280_temperature;BME280_humidity;BME280_pressure;Samples;Min_cycle;Max_cycle;Signal;HPM_P1;HPM_P2
2022/04/10 00:00:55;;;;;;;38.15;16.80;;;;;;;;;;6329810;28;20148;-64
2022/04/10 00:03:56;;;;;;;39.05;17.02;;;;;;;;;;6329631;28;20131;-62
2022/04/10 00:06:57;;;;;;;35.58;15.82;;;;;;;;;;6326977;28;20146;-63
2022/04/10 00:09:58;;;;;;;38.95;15.68;;;;;;;;;;6335914;28;20070;-62
2022/04/10 00:12:58;;;;;;;33.10;15.68;;;;;;;;;;6327178;28;20052;-66
2022/04/10 00:15:59;;;;;;;35.38;14.63;;;;;;;;;;6328553;28;20079;-64
2022/04/10 00:19:04;;;;;;;35.90;15.02;;;;;;;;;;6334265;28;20139;-62
2022/04/10 00:22:04;;;;;;;35.30;15.88;;;;;;;;;;6331446;28;20100;-64
2022/04/10 00:25:07;;;;;;;34.63;15.65;;;;;;;;;;6331023;28;20486;-63
2022/04/10 00:28:08;;;;;;;38.08;16.77;;;;;;;;;;6328323;28;20048;-62
2022/04/10 00:31:08;;;;;;;36.25;16.83;;;;;;;;;;6328873;28;20062;-64
2022/04/10 00:34:09;;;;;;;37.30;16.00;;;;;;;;;;6330969;28;20177;-66
2022/04/10 00:37:09;;;;;;;37.63;16.88;;;;;;;;;;6333884;28;20600;-65
2022/04/10 00:40:10;;;;;;;35.22;17.10;;;;;;;;;;6330403;28;20138;-64
2022/04/10 00:43:11;;;;;;;34.75;16.77;;;;;;;;;;6330563;28;20105;-62
2022/04/10 00:46:12;;;;;;;33.17;15.75;;;;;;;;;;6335349;28;20118;-63
2022/04/10 00:49:12;;;;;;;38.67;18.40;;;;;;;;;;6327989;28;20052;-62
2022/04/10 00:52:14;;;;;;;37.90;18.15;;;;;;;;;;6335878;28;20086;-63
2022/04/10 00:55:16;;;;;;;37.05;18.25;;;;;;;;;;6333559;28;20067;-64
2022/04/10 00:58:17;;;;;;;;;;;;;;;;;;6331213;28;20044;-62
2022/04/10 01:01:18;;;;;;;36.25;16.60;;;;;;;;;;6323799;28;20389;-62
2022/04/10 01:04:19;;;;;;;37.53;17.38;;;;;;;;;;6325773;28;20439;-62
2022/04/10 01:07:20;;;;;;;39.10;17.15;;;;;;;;;;6328359;28;20057;-63
2022/04/10 01:10:20;;;;;;;39.35;18.67;;;;;;;;;;6329783;28;20052;-62
2022/04/10 01:13:22;;;;;;;38.80;17.70;;;;;;;;;;6325663;28;20055;-64
2022/04/10 01:16:23;;;;;;;35.90;17.38;;;;;;;;;;6325004;28;20475;-61
2022/04/10 01:19:24;;;;;;;39.75;17.45;;;;;;;;;;6337024;28;20138;-63
2022/04/10 01:22:34;;;;;;;39.70;17.08;;;;;;;;;;6326031;28;20047;-63
2022/04/10 01:25:35;;;;;;;37.35;17.42;;;;;;;;;;6334788;28;20051;-64
2022/04/10 01:28:35;;;;;;;42.95;22.13;;;;;;;;;;6333505;27;20498;-63
2022/04/10 01:31:39;;;;;;;38.17;19.75;;;;;;;;;;6338305;28;20048;-62
2022/04/10 01:34:41;;;;;;;37.55;18.13;;;;;;;;;;6326028;28;20416;-61
2022/04/10 01:37:43;;;;;;;39.17;18.27;;;;;;;;;;6324311;28;20043;-63
2022/04/10 01:40:43;;;;;;;34.20;17.20;;;;;;;;;;6327986;28;20212;-63
2022/04/10 01:43:45;;;;;;;34.95;16.98;;;;;;;;;;6326444;28;20047;-63
2022/04/10 01:46:46;;;;;;;36.95;18.05;;;;;;;;;;6332718;28;20117;-65
2022/04/10 01:49:47;;;;;;;34.72;17.95;;;;;;;;;;6337221;28;20056;-64
2022/04/10 01:52:47;;;;;;;35.75;17.60;;;;;;;;;;6319262;28;20135;-63
2022/04/10 01:55:48;;;;;;;42.40;20.55;;;;;;;;;;6333229;28;20406;-61
2022/04/10 01:58:52;;;;;;;49.70;22.52;;;;;;;;;;6332495;28;20177;-60
2022/04/10 02:01:52;;;;;;;56.10;25.10;;;;;;;;;;6331053;28;20175;-64
2022/04/10 02:04:53;;;;;;;56.38;24.33;;;;;;;;;;6329277;28;20160;-61
2022/04/10 02:07:53;;;;;;;65.25;27.42;;;;;;;;;;6331666;28;20057;-61
2022/04/10 02:10:54;;;;;;;65.18;28.63;;;;;;;;;;6328059;28;20076;-63
2022/04/10 02:13:55;;;;;;;65.97;28.17;;;;;;;;;;6320350;28;20035;-63
2022/04/10 02:16:55;;;;;;;72.22;29.17;;;;;;;;;;6333462;28;20051;-62
2022/04/10 02:19:58;;;;;;;60.35;28.05;;;;;;;;;;6325948;28;20044;-65
2022/04/10 02:22:59;;;;;;;59.63;27.30;;;;;;;;;;6332233;28;20040;-60
2022/04/10 02:26:00;;;;;;;48.08;21.95;;;;;;;;;;6319064;28;20505;-64
2022/04/10 02:29:01;;;;;;;51.17;23.65;;;;;;;;;;6325024;28;20044;-61
2022/04/10 02:32:02;;;;;;;46.83;21.00;;;;;;;;;;6324798;28;20071;-61
2022/04/10 02:35:04;;;;;;;55.63;24.23;;;;;;;;;;6323420;28;20054;-61
2022/04/10 02:38:04;;;;;;;58.60;26.63;;;;;;;;;;6329056;28;20079;-62
2022/04/10 02:41:05;;;;;;;58.88;28.27;;;;;;;;;;6334289;28;20055;-61
2022/04/10 02:44:06;;;;;;;60.83;27.88;;;;;;;;;;6331015;28;20093;-61
2022/04/10 02:47:06;;;;;;;55.83;25.98;;;;;;;;;;6326564;28;20696;-62
2022/04/10 02:50:07;;;;;;;60.22;26.77;;;;;;;;;;6326389;28;20040;-63
2022/04/10 02:53:08;;;;;;;56.80;25.83;;;;;;;;;;6325919;28;20131;-63
2022/04/10 02:56:09;;;;;;;55.60;25.23;;;;;;;;;;6332608;28;20063;-64
2022/04/10 02:59:09;;;;;;;62.42;26.77;;;;;;;;;;6326238;28;20067;-61
2022/04/10 03:02:10;;;;;;;57.67;25.65;;;;;;;;;;6326014;28;20074;-63
2022/04/10 03:05:11;;;;;;;50.28;23.85;;;;;;;;;;6333354;28;20478;-61
2022/04/10 03:08:12;;;;;;;50.60;23.00;;;;;;;;;;6329286;28;20097;-64
2022/04/10 03:11:13;;;;;;;44.03;20.42;;;;;;;;;;6333565;28;20439;-60
2022/04/10 03:14:13;;;;;;;50.20;21.67;;;;;;;;;;6331321;28;20088;-62
2022/04/10 03:17:14;;;;;;;43.53;20.92;;;;;;;;;;6338537;28;20075;-61
2022/04/10 03:20:15;;;;;;;38.85;19.65;;;;;;;;;;6328502;28;20063;-63
2022/04/10 03:23:16;;;;;;;35.78;17.63;;;;;;;;;;6328828;28;20044;-63
2022/04/10 03:26:17;;;;;;;44.25;19.08;;;;;;;;;;6336119;28;20043;-61
2022/04/10 03:29:18;;;;;;;39.55;17.60;;;;;;;;;;6329681;28;20135;-63
2022/04/10 03:32:19;;;;;;;31.42;17.00;;;;;;;;;;6322781;28;20116;-61
2022/04/10 03:35:19;;;;;;;42.92;17.35;;;;;;;;;;6327472;28;20044;-61
2022/04/10 03:38:21;;;;;;;34.95;16.75;;;;;;;;;;6333746;28;20048;-60
2022/04/10 03:41:21;;;;;;;28.83;15.93;;;;;;;;;;6327181;28;20402;-62
2022/04/10 03:44:22;;;;;;;31.75;16.10;;;;;;;;;;6335979;28;20123;-61
2022/04/10 03:47:23;;;;;;;38.25;18.20;;;;;;;;;;6336155;28;20123;-62
2022/04/10 03:50:25;;;;;;;37.27;17.30;;;;;;;;;;6329821;28;20643;-62
2022/04/10 03:53:26;;;;;;;34.92;18.27;;;;;;;;;;6326803;28;20406;-64
2022/04/10 03:56:27;;;;;;;31.95;16.50;;;;;;;;;;6332168;28;20048;-61
2022/04/10 03:59:27;;;;;;;31.70;16.83;;;;;;;;;;6333216;28;20126;-61
2022/04/10 04:02:28;;;;;;;30.83;16.85;;;;;;;;;;6324605;28;20479;-63
2022/04/10 04:05:28;;;;;;;31.02;16.67;;;;;;;;;;6327804;28;20079;-63
2022/04/10 04:08:29;;;;;;;30.88;16.63;;;;;;;;;;6330544;28;20104;-62
2022/04/10 04:11:30;;;;;;;35.13;17.42;;;;;;;;;;6331590;28;20053;-63
2022/04/10 04:14:30;;;;;;;37.00;18.13;;;;;;;;;;6324396;28;20363;-61
2022/04/10 04:17:31;;;;;;;38.70;17.35;;;;;;;;;;6329217;28;20162;-64
2022/04/10 04:20:32;;;;;;;37.03;18.45;;;;;;;;;;6333903;28;20406;-62
2022/04/10 04:23:32;;;;;;;37.10;18.30;;;;;;;;;;6327199;28;20046;-62
2022/04/10 04:26:33;;;;;;;40.40;19.42;;;;;;;;;;6334826;28;20051;-65
2022/04/10 04:29:34;;;;;;;38.58;20.90;;;;;;;;;;6338332;28;20380;-62
2022/04/10 04:32:34;;;;;;;45.70;23.35;;;;;;;;;;6333822;28;20047;-62
2022/04/10 04:35:35;;;;;;;40.95;19.95;;;;;;;;;;6322976;28;20143;-63
2022/04/10 04:38:35;;;;;;;44.30;21.00;;;;;;;;;;6337530;28;20150;-63
2022/04/10 04:41:36;;;;;;;38.05;19.48;;;;;;;;;;6327154;28;20500;-62
2022/04/10 04:44:36;;;;;;;39.95;20.35;;;;;;;;;;6324586;28;20055;-63
2022/04/10 04:47:37;;;;;;;40.22;19.85;;;;;;;;;;6325243;28;20959;-65
2022/04/10 04:50:38;;;;;;;39.85;19.83;;;;;;;;;;6330691;28;20048;-62
2022/04/10 04:53:38;;;;;;;34.75;19.55;;;;;;;;;;6324134;28;20040;-63
2022/04/10 04:56:39;;;;;;;38.63;19.77;;;;;;;;;;6327871;28;20053;-62
2022/04/10 04:59:39;;;;;;;36.58;18.48;;;;;;;;;;6326699;28;20126;-63
2022/04/10 05:02:40;;;;;;;43.10;20.58;;;;;;;;;;6328459;28;20047;-65
2022/04/10 05:05:40;;;;;;;39.97;19.60;;;;;;;;;;6337329;28;20134;-63
2022/04/10 05:08:41;;;;;;;41.30;21.75;;;;;;;;;;6324187;28;20470;-65
2022/04/10 05:11:42;;;;;;;37.45;19.65;;;;;;;;;;6324942;28;20050;-64
2022/04/10 05:14:43;;;;;;;37.97;18.50;;;;;;;;;;6325439;28;20429;-62
2022/04/10 05:17:43;;;;;;;33.28;17.63;;;;;;;;;;6320883;28;20088;-61
2022/04/10 05:20:45;;;;;;;30.08;17.23;;;;;;;;;;6334777;28;20048;-62
2022/04/10 05:23:46;;;;;;;31.83;16.50;;;;;;;;;;6325806;28;20096;-61
2022/04/10 05:26:46;;;;;;;27.40;16.85;;;;;;;;;;6330507;28;20048;-62
2022/04/10 05:29:48;;;;;;;31.95;18.30;;;;;;;;;;6331763;28;20048;-63
2022/04/10 05:32:48;;;;;;;30.20;18.05;;;;;;;;;;6322158;28;20113;-62
2022/04/10 05:35:53;;;;;;;32.20;18.70;;;;;;;;;;6320862;28;20450;-62
2022/04/10 05:38:53;;;;;;;37.75;21.02;;;;;;;;;;6339472;27;20074;-64
2022/04/10 05:41:54;;;;;;;29.98;18.13;;;;;;;;;;6336409;27;20478;-63
2022/04/10 05:45:02;;;;;;;32.03;19.25;;;;;;;;;;6336400;27;20054;-63
2022/04/10 05:48:02;;;;;;;37.72;19.50;;;;;;;;;;6337264;28;20066;-63
2022/04/10 05:51:03;;;;;;;32.45;18.67;;;;;;;;;;6332740;28;20100;-63
2022/04/10 05:54:04;;;;;;;35.45;17.95;;;;;;;;;;6331563;28;20079;-63
2022/04/10 05:57:05;;;;;;;27.40;16.45;;;;;;;;;;6311453;28;20049;-64
2022/04/10 06:00:11;;;;;;;25.75;15.15;;;;;;;;;;6326591;28;20083;-64
2022/04/10 06:03:12;;;;;;;26.77;15.40;;;;;;;;;;6331079;28;20055;-64
2022/04/10 06:06:13;;;;;;;27.63;14.52;;;;;;;;;;6330851;28;20093;-64
2022/04/10 06:09:14;;;;;;;30.80;15.60;;;;;;;;;;6336581;28;20449;-64
2022/04/10 06:12:14;;;;;;;35.75;15.90;;;;;;;;;;6330744;28;20050;-65
2022/04/10 06:15:18;;;;;;;37.70;16.58;;;;;;;;;;6333009;28;20132;-64
2022/04/10 06:18:19;;;;;;;28.52;14.25;;;;;;;;;;6333417;28;20087;-63
2022/04/10 06:21:20;;;;;;;32.35;16.00;;;;;;;;;;6328229;28;20419;-64
2022/04/10 06:24:21;;;;;;;25.52;13.52;;;;;;;;;;6330084;28;20050;-62
2022/04/10 06:27:22;;;;;;;24.10;13.87;;;;;;;;;;6336607;28;20390;-63
2022/04/10 06:30:23;;;;;;;31.30;15.45;;;;;;;;;;6322856;28;20112;-65
2022/04/10 06:33:23;;;;;;;34.45;13.45;;;;;;;;;;6333732;28;20081;-65
2022/04/10 06:36:24;;;;;;;33.30;14.20;;;;;;;;;;6331758;27;20430;-64
2022/04/10 06:39:25;;;;;;;26.85;12.48;;;;;;;;;;6339891;28;20048;-65
2022/04/10 06:42:25;;;;;;;20.90;11.35;;;;;;;;;;6339858;28;20054;-65
2022/04/10 06:45:26;;;;;;;23.30;10.60;;;;;;;;;;6332421;28;20052;-65
2022/04/10 06:48:26;;;;;;;39.17;16.60;;;;;;;;;;6326954;28;20049;-65
2022/04/10 06:51:27;;;;;;;23.67;12.00;;;;;;;;;;6339275;27;20050;-64
2022/04/10 06:54:28;;;;;;;23.98;11.10;;;;;;;;;;6341946;27;20048;-66
2022/04/10 06:57:28;;;;;;;24.10;10.82;;;;;;;;;;6344292;27;20592;-65
2022/04/10 07:00:29;;;;;;;25.77;11.63;;;;;;;;;;6338689;27;20040;-65
2022/04/10 07:03:30;;;;;;;22.95;10.30;;;;;;;;;;6339728;27;20055;-66
2022/04/10 07:06:30;;;;;;;21.65;10.95;;;;;;;;;;6340673;27;20103;-65
2022/04/10 07:09:31;;;;;;;25.00;11.52;;;;;;;;;;6341292;27;20400;-65
2022/04/10 07:12:32;;;;;;;21.33;10.18;;;;;;;;;;6331173;28;20451;-65
2022/04/10 07:15:32;;;;;;;23.27;10.63;;;;;;;;;;6334141;28;20514;-65
2022/04/10 07:18:33;;;;;;;19.90;9.95;;;;;;;;;;6334859;28;20072;-66
2022/04/10 07:24:53;;;;;;;25.42;10.80;;;;;;;;;;6326181;28;20514;-63
2022/04/10 07:27:53;;;;;;;19.45;9.82;;;;;;;;;;6332381;28;20417;-65
2022/04/10 07:30:54;;;;;;;20.60;10.10;;;;;;;;;;6329548;28;20058;-64
2022/04/10 07:33:55;;;;;;;23.45;9.35;;;;;;;;;;6334333;28;20097;-61
2022/04/10 07:36:55;;;;;;;20.35;9.13;;;;;;;;;;6324363;28;20106;-61
2022/04/10 07:39:56;;;;;;;17.20;8.40;;;;;;;;;;6336323;28;20059;-60
2022/04/10 07:42:57;;;;;;;14.95;7.45;;;;;;;;;;6331512;28;20130;-61
2022/04/10 07:49:18;;;;;;;14.73;7.60;;;;;;;;;;6336095;28;20135;-63
2022/04/10 07:52:19;;;;;;;13.98;7.38;;;;;;;;;;6342727;28;20498;-62
2022/04/10 07:55:21;;;;;;;15.93;7.80;;;;;;;;;;6332179;28;20410;-61
2022/04/10 07:58:22;;;;;;;17.95;8.15;;;;;;;;;;6335157;28;20077;-61
2022/04/10 08:01:23;;;;;;;16.35;7.95;;;;;;;;;;6336175;28;20757;-63
2022/04/10 08:04:25;;;;;;;17.35;7.50;;;;;;;;;;6329713;28;20048;-61
2022/04/10 08:07:26;;;;;;;21.60;10.35;;;;;;;;;;6324987;28;20044;-62
2022/04/10 08:10:26;;;;;;;16.20;8.50;;;;;;;;;;6330306;28;20040;-62
2022/04/10 08:13:27;;;;;;;15.05;7.75;;;;;;;;;;6333671;28;20043;-63
2022/04/10 08:16:28;;;;;;;20.65;8.07;;;;;;;;;;6327835;28;20074;-64
2022/04/10 08:19:28;;;;;;;17.83;7.65;;;;;;;;;;6339099;28;20549;-62
2022/04/10 08:22:31;;;;;;;19.08;6.93;;;;;;;;;;6334988;28;20047;-63
2022/04/10 08:25:32;;;;;;;12.13;5.80;;;;;;;;;;6324567;28;20410;-62
2022/04/10 08:28:34;;;;;;;11.68;5.57;;;;;;;;;;6332514;28;20074;-65
2022/04/10 08:31:35;;;;;;;;;;;;;;;;;;6337924;28;20046;-64
2022/04/10 08:34:35;;;;;;;15.30;5.30;;;;;;;;;;6341000;27;19947;-63
2022/04/10 08:37:37;;;;;;;11.75;5.40;;;;;;;;;;6342524;28;20083;-63
2022/04/10 08:40:38;;;;;;;13.23;5.55;;;;;;;;;;6337153;28;20572;-64
2022/04/10 08:43:39;;;;;;;17.88;4.70;;;;;;;;;;6341344;28;20047;-62
2022/04/10 08:46:40;;;;;;;8.07;3.92;;;;;;;;;;6337750;28;20140;-64
2022/04/10 08:49:40;;;;;;;10.77;4.20;;;;;;;;;;6340795;28;20490;-62
2022/04/10 08:52:43;;;;;;;15.80;5.13;;;;;;;;;;6330662;28;20071;-62
2022/04/10 08:55:43;;;;;;;16.55;4.63;;;;;;;;;;6331323;28;20047;-62
2022/04/10 08:58:44;;;;;;;14.10;4.03;;;;;;;;;;6337502;28;20049;-64
2022/04/10 09:01:45;;;;;;;9.68;4.00;;;;;;;;;;6336946;28;20086;-63
2022/04/10 09:04:45;;;;;;;12.38;4.50;;;;;;;;;;6328900;28;20047;-63
2022/04/10 09:08:08;;;;;;;9.65;3.75;;;;;;;;;;6339849;28;20044;-64
2022/04/10 09:11:09;;;;;;;;;;;;;;;;;;6338758;28;20047;-64
2022/04/10 09:14:10;;;;;;;11.98;4.60;;;;;;;;;;6330649;28;20359;-62
2022/04/10 09:17:16;;;;;;;20.73;7.25;;;;;;;;;;6333142;28;20151;-62
2022/04/10 09:20:17;;;;;;;14.15;4.75;;;;;;;;;;6337879;28;20052;-61
2022/04/10 09:23:22;;;;;;;11.73;4.28;;;;;;;;;;6338656;28;20042;-62
2022/04/10 09:26:22;;;;;;;13.13;5.10;;;;;;;;;;6335170;28;20517;-62
2022/04/10 09:29:24;;;;;;;9.10;3.80;;;;;;;;;;6330145;28;20493;-62
2022/04/10 09:32:44;;;;;;;10.63;4.68;;;;;;;;;;6322833;28;20052;-62
2022/04/10 09:35:45;;;;;;;10.77;4.57;;;;;;;;;;6327783;28;20357;-62
2022/04/10 09:38:46;;;;;;;12.82;4.85;;;;;;;;;;6325168;28;20043;-62
2022/04/10 09:41:46;;;;;;;13.27;3.95;;;;;;;;;;6330273;28;20528;-62
2022/04/10 09:44:49;;;;;;;10.68;4.15;;;;;;;;;;6309725;28;20063;-62
2022/04/10 09:47:49;;;;;;;8.63;3.83;;;;;;;;;;6325719;28;20130;-62
2022/04/10 09:50:52;;;;;;;11.02;3.83;;;;;;;;;;6328418;28;20165;-62
2022/04/10 09:54:04;;;;;;;10.80;4.00;;;;;;;;;;6330836;28;20135;-62
2022/04/10 09:57:10;;;;;;;11.57;4.30;;;;;;;;;;6326446;28;20051;-61
2022/04/10 10:00:11;;;;;;;12.38;4.65;;;;;;;;;;6327842;28;20050;-62
2022/04/10 10:03:13;;;;;;;12.63;4.90;;;;;;;;;;6333405;28;20456;-62
2022/04/10 10:06:14;;;;;;;;;;;;;;;;;;6333128;28;20078;-62
2022/04/10 10:09:15;;;;;;;10.45;4.55;;;;;;;;;;6328293;28;19923;-63
2022/04/10 10:12:16;;;;;;;10.18;4.10;;;;;;;;;;6333637;28;20059;-64
2022/04/10 10:15:17;;;;;;;11.60;3.85;;;;;;;;;;6331226;28;20144;-63
2022/04/10 10:18:18;;;;;;;9.48;4.35;;;;;;;;;;6328270;28;20079;-65
2022/04/10 10:21:20;;;;;;;13.68;6.38;;;;;;;;;;6325806;28;20498;-64
2022/04/10 10:24:24;;;;;;;10.82;4.10;;;;;;;;;;6328112;28;20055;-63
2022/04/10 10:27:24;;;;;;;9.75;5.05;;;;;;;;;;6327784;28;20058;-64
2022/04/10 10:30:31;;;;;;;7.93;3.60;;;;;;;;;;6326767;27;20055;-64
2022/04/10 10:33:34;;;;;;;9.18;4.00;;;;;;;;;;6333131;28;20460;-64
2022/04/10 10:36:37;;;;;;;8.75;3.60;;;;;;;;;;6332902;28;20134;-64
2022/04/10 10:39:44;;;;;;;;;;;;;;;;;;6333516;28;20083;-64
2022/04/10 10:42:46;;;;;;;12.02;3.22;;;;;;;;;;6331803;28;19935;-65
2022/04/10 10:45:48;;;;;;;;;;;;;;;;;;6331063;28;20065;-62
2022/04/10 10:49:10;;;;;;;7.25;3.10;;;;;;;;;;6327683;28;19964;-62
2022/04/10 10:52:11;;;;;;;10.43;3.60;;;;;;;;;;6326169;28;20548;-63
2022/04/10 10:55:14;;;;;;;5.70;2.85;;;;;;;;;;6329258;28;20052;-63
2022/04/10 10:58:22;;;;;;;11.57;3.83;;;;;;;;;;6329785;28;20052;-61
2022/04/10 11:01:25;;;;;;;11.73;3.50;;;;;;;;;;6323460;28;20090;-62
2022/04/10 11:04:30;;;;;;;9.32;4.00;;;;;;;;;;6325830;28;20047;-63
2022/04/10 11:07:30;;;;;;;9.27;4.30;;;;;;;;;;6328477;28;20564;-62
2022/04/10 11:10:35;;;;;;;9.50;4.20;;;;;;;;;;6326904;28;20054;-62
2022/04/10 11:13:38;;;;;;;8.93;3.83;;;;;;;;;;6324997;28;20146;-62
2022/04/10 11:16:41;;;;;;;7.78;4.10;;;;;;;;;;6327187;28;20435;-61
2022/04/10 11:20:07;;;;;;;11.25;4.43;;;;;;;;;;6328647;28;20044;-62
2022/04/10 11:23:07;;;;;;;10.05;4.93;;;;;;;;;;6325338;28;20492;-62
2022/04/10 11:26:16;;;;;;;8.75;4.30;;;;;;;;;;6306696;28;20642;-62
2022/04/10 11:29:20;;;;;;;11.88;4.65;;;;;;;;;;6308738;28;20048;-61
2022/04/10 11:32:21;;;;;;;9.73;4.50;;;;;;;;;;6303670;28;20048;-63
2022/04/10 11:35:30;;;;;;;9.48;5.05;;;;;;;;;;6304415;28;20204;-62
2022/04/10 11:38:31;;;;;;;13.60;5.10;;;;;;;;;;6305624;28;20155;-63
2022/04/10 11:41:32;;;;;;;10.30;5.38;;;;;;;;;;6304208;28;20691;-63
2022/04/10 11:44:33;;;;;;;15.05;7.03;;;;;;;;;;6306173;28;20083;-63
2022/04/10 11:47:35;;;;;;;16.30;7.15;;;;;;;;;;6307419;28;20051;-63
2022/04/10 11:50:37;;;;;;;16.73;7.57;;;;;;;;;;6303099;28;20048;-62
2022/04/10 11:53:37;;;;;;;16.50;7.10;;;;;;;;;;6304780;28;20071;-63
2022/04/10 11:56:38;;;;;;;14.07;6.47;;;;;;;;;;6307420;28;20056;-61
2022/04/10 11:59:40;;;;;;;13.45;6.38;;;;;;;;;;6307320;28;20044;-63
2022/04/10 12:02:41;;;;;;;13.40;7.68;;;;;;;;;;6304654;28;20475;-63
2022/04/10 12:05:41;;;;;;;14.90;7.35;;;;;;;;;;6305111;28;20097;-64
2022/04/10 12:08:43;;;;;;;18.40;8.68;;;;;;;;;;6302830;28;20063;-63
2022/04/10 12:11:48;;;;;;;14.55;7.10;;;;;;;;;;6302253;28;20127;-63
2022/04/10 12:14:53;;;;;;;17.35;8.70;;;;;;;;;;6303447;28;20060;-64
2022/04/10 12:18:12;;;;;;;12.88;8.50;;;;;;;;;;6308311;28;20434;-64
2022/04/10 12:21:14;;;;;;;15.20;6.28;;;;;;;;;;6305477;28;20669;-63
2022/04/10 12:24:22;;;;;;;10.23;6.00;;;;;;;;;;6305156;28;20062;-62
2022/04/10 12:27:23;;;;;;;16.25;8.85;;;;;;;;;;6303306;28;20186;-63
2022/04/10 12:30:24;;;;;;;10.20;5.90;;;;;;;;;;6305845;28;20484;-65
2022/04/10 12:33:25;;;;;;;12.20;5.82;;;;;;;;;;6304477;28;20685;-64
2022/04/10 12:36:28;;;;;;;12.10;6.00;;;;;;;;;;6300769;28;20464;-64
2022/04/10 12:39:29;;;;;;;;;;;;;;;;;;6307827;28;20138;-64
2022/04/10 12:42:38;;;;;;;12.15;6.32;;;;;;;;;;6307527;28;19939;-64
2022/04/10 12:45:40;;;;;;;15.98;8.40;;;;;;;;;;6304682;28;20087;-64
2022/04/10 12:48:41;;;;;;;16.73;7.57;;;;;;;;;;6305033;28;20395;-64
2022/04/10 12:52:03;;;;;;;11.25;5.38;;;;;;;;;;6305014;28;20058;-64
2022/04/10 12:55:21;;;;;;;9.87;5.37;;;;;;;;;;6305810;28;21042;-64
2022/04/10 12:58:22;;;;;;;7.30;4.50;;;;;;;;;;6302843;28;20308;-65
2022/04/10 13:01:27;;;;;;;10.23;5.30;;;;;;;;;;6306759;28;20056;-64
2022/04/10 13:04:31;;;;;;;12.35;5.43;;;;;;;;;;6305431;28;20090;-64
2022/04/10 13:07:33;;;;;;;10.60;5.82;;;;;;;;;;6305138;28;20051;-60
2022/04/10 13:10:49;;;;;;;14.43;6.57;;;;;;;;;;6307963;28;20535;-60
2022/04/10 13:14:00;;;;;;;17.73;8.82;;;;;;;;;;6308127;28;20087;-64
2022/04/10 13:17:04;;;;;;;9.32;5.38;;;;;;;;;;6306501;28;20051;-61
2022/04/10 13:20:08;;;;;;;13.57;6.15;;;;;;;;;;6305674;28;20055;-61
2022/04/10 13:23:09;;;;;;;13.35;6.93;;;;;;;;;;6306061;28;20144;-61
2022/04/10 13:26:10;;;;;;;12.30;6.75;;;;;;;;;;6306346;28;20044;-64
2022/04/10 13:29:11;;;;;;;8.63;5.50;;;;;;;;;;6302540;28;20044;-63
2022/04/10 13:32:12;;;;;;;10.07;6.28;;;;;;;;;;6305899;28;20097;-61
2022/04/10 13:35:12;;;;;;;21.90;9.07;;;;;;;;;;6305512;28;20056;-62
2022/04/10 13:38:13;;;;;;;11.00;5.90;;;;;;;;;;6305264;28;20051;-65
2022/04/10 13:41:14;;;;;;;20.38;9.05;;;;;;;;;;6306042;28;20141;-64
2022/04/10 13:44:14;;;;;;;10.95;6.03;;;;;;;;;;6307083;28;20055;-66
2022/04/10 13:47:15;;;;;;;17.63;7.32;;;;;;;;;;6304433;28;20044;-68
2022/04/10 13:50:15;;;;;;;11.02;6.25;;;;;;;;;;6301314;28;20048;-61
2022/04/10 13:53:16;;;;;;;13.60;6.95;;;;;;;;;;6305856;28;20047;-65
2022/04/10 13:56:17;;;;;;;15.88;7.25;;;;;;;;;;6305738;28;20040;-61
2022/04/10 13:59:18;;;;;;;16.92;7.85;;;;;;;;;;6302903;28;20128;-62
2022/04/10 14:02:18;;;;;;;18.52;9.00;;;;;;;;;;6304183;28;20040;-62
2022/04/10 14:05:19;;;;;;;15.73;8.68;;;;;;;;;;6304461;28;20545;-62
2022/04/10 14:08:19;;;;;;;19.00;9.13;;;;;;;;;;6305767;28;20056;-62
2022/04/10 14:11:20;;;;;;;24.25;10.40;;;;;;;;;;6305151;28;20056;-62
2022/04/10 14:14:21;;;;;;;21.60;10.02;;;;;;;;;;6303720;28;20052;-61
2022/04/10 14:17:22;;;;;;;22.40;9.95;;;;;;;;;;6302144;28;20036;-63
2022/04/10 14:20:26;;;;;;;19.42;9.68;;;;;;;;;;6302632;28;20120;-61
2022/04/10 14:23:27;;;;;;;11.07;5.90;;;;;;;;;;6305531;28;20495;-62
2022/04/10 14:26:28;;;;;;;10.20;3.95;;;;;;;;;;6303904;28;20048;-62
2022/04/10 14:29:34;;;;;;;10.35;4.50;;;;;;;;;;6304575;28;20044;-62
2022/04/10 14:32:36;;;;;;;9.35;4.40;;;;;;;;;;6306091;28;20044;-61
2022/04/10 14:35:37;;;;;;;12.27;4.10;;;;;;;;;;6305507;28;20056;-62
2022/04/10 14:38:38;;;;;;;12.32;4.20;;;;;;;;;;6305056;28;20460;-61
2022/04/10 14:41:39;;;;;;;10.93;5.45;;;;;;;;;;6305675;28;20040;-61
2022/04/10 14:44:42;;;;;;;12.93;6.10;;;;;;;;;;6306481;28;20119;-62
2022/04/10 14:47:43;;;;;;;21.85;10.25;;;;;;;;;;6305849;28;20086;-63
2022/04/10 14:50:43;;;;;;;14.95;7.72;;;;;;;;;;6302803;28;20701;-62
2022/04/10 14:53:44;;;;;;;21.70;10.75;;;;;;;;;;6305461;28;20052;-62
2022/04/10 14:56:45;;;;;;;17.45;8.90;;;;;;;;;;6305685;28;20066;-62
2022/04/10 14:59:45;;;;;;;15.95;7.60;;;;;;;;;;6309521;28;20475;-63
2022/04/10 15:02:50;;;;;;;18.27;7.53;;;;;;;;;;6310396;28;20197;-62
2022/04/10 15:05:51;;;;;;;16.90;7.32;;;;;;;;;;6308954;28;20066;-63
2022/04/10 15:08:51;;;;;;;9.95;5.18;;;;;;;;;;6308987;28;20060;-61
2022/04/10 15:11:52;;;;;;;9.43;5.13;;;;;;;;;;6308523;28;20056;-63
2022/04/10 15:14:54;;;;;;;7.55;4.25;;;;;;;;;;6308902;28;20056;-61
2022/04/10 15:17:54;;;;;;;7.65;4.60;;;;;;;;;;6310524;28;20055;-62
2022/04/10 15:20:55;;;;;;;8.10;3.67;;;;;;;;;;6288451;28;20554;-62
2022/04/10 15:23:56;;;;;;;5.47;3.20;;;;;;;;;;6310920;28;20086;-60
2022/04/10 15:26:57;;;;;;;6.25;3.65;;;;;;;;;;6308646;28;20076;-60
2022/04/10 15:29:58;;;;;;;7.80;4.10;;;;;;;;;;6307642;28;20147;-61
2022/04/10 15:32:59;;;;;;;8.30;3.88;;;;;;;;;;6307760;28;20058;-61
2022/04/10 15:36:00;;;;;;;9.88;3.95;;;;;;;;;;6306707;28;20176;-64
2022/04/10 15:39:00;;;;;;;11.38;4.15;;;;;;;;;;6309379;28;20086;-61
2022/04/10 15:42:01;;;;;;;10.82;4.47;;;;;;;;;;6307917;28;20146;-60
2022/04/10 15:45:06;;;;;;;13.80;4.88;;;;;;;;;;6306597;28;20050;-63
2022/04/10 15:48:10;;;;;;;10.75;4.32;;;;;;;;;;6307161;28;20051;-62
2022/04/10 15:51:12;;;;;;;8.95;4.35;;;;;;;;;;6306528;28;20406;-61
2022/04/10 15:54:12;;;;;;;8.48;3.33;;;;;;;;;;6309315;28;20054;-63
2022/04/10 15:57:13;;;;;;;11.15;3.90;;;;;;;;;;6307076;28;20052;-64
2022/04/10 16:00:16;;;;;;;6.78;3.53;;;;;;;;;;6304942;28;20040;-62
2022/04/10 16:03:16;;;;;;;11.10;3.85;;;;;;;;;;6309172;28;20047;-61
2022/04/10 16:06:17;;;;;;;6.00;3.35;;;;;;;;;;6307187;28;20486;-62
2022/04/10 16:09:18;;;;;;;11.05;3.85;;;;;;;;;;6307352;28;20498;-62
2022/04/10 16:12:18;;;;;;;8.23;4.07;;;;;;;;;;6307463;28;20051;-62
2022/04/10 16:15:19;;;;;;;8.15;3.58;;;;;;;;;;6307933;28;20044;-61
2022/04/10 16:18:20;;;;;;;13.98;5.50;;;;;;;;;;6310196;28;20048;-63
2022/04/10 16:21:21;;;;;;;11.43;5.20;;;;;;;;;;6307225;28;20052;-62
2022/04/10 16:24:21;;;;;;;12.05;4.75;;;;;;;;;;6310073;28;20056;-64
2022/04/10 16:30:41;;;;;;;10.23;4.45;;;;;;;;;;6305961;28;20191;-70
2022/04/10 16:37:03;;;;;;;8.57;3.83;;;;;;;;;;6307381;28;20087;-70
2022/04/10 16:40:05;;;;;;;6.50;3.28;;;;;;;;;;6309177;28;20190;-71
2022/04/10 16:43:06;;;;;;;6.43;3.83;;;;;;;;;;6307430;28;20105;-70
2022/04/10 16:46:07;;;;;;;9.82;5.07;;;;;;;;;;6308291;28;20356;-70
2022/04/10 16:49:08;;;;;;;13.00;6.90;;;;;;;;;;6309021;28;20048;-68
2022/04/10 16:52:08;;;;;;;12.63;5.95;;;;;;;;;;6307429;28;20138;-66
2022/04/10 16:55:10;;;;;;;9.00;4.25;;;;;;;;;;6307490;28;20075;-67
2022/04/10 16:58:10;;;;;;;9.98;4.15;;;;;;;;;;6308463;28;20086;-68
2022/04/10 17:01:12;;;;;;;14.75;6.88;;;;;;;;;;6308276;28;20077;-71
2022/04/10 17:04:13;;;;;;;13.15;5.50;;;;;;;;;;6308166;28;20040;-60
2022/04/10 17:07:14;;;;;;;16.00;6.35;;;;;;;;;;6304929;28;20181;-62
2022/04/10 17:10:15;;;;;;;17.33;7.82;;;;;;;;;;6309316;28;20083;-62
2022/04/10 17:13:16;;;;;;;11.45;5.63;;;;;;;;;;6307446;28;20052;-62
2022/04/10 17:16:16;;;;;;;8.52;4.00;;;;;;;;;;6305597;28;20043;-60
2022/04/10 17:19:17;;;;;;;6.72;3.35;;;;;;;;;;6307081;28;20052;-60
2022/04/10 17:22:17;;;;;;;8.75;5.78;;;;;;;;;;6305305;28;20039;-60
2022/04/10 17:25:18;;;;;;;8.90;5.10;;;;;;;;;;6306334;28;20075;-61
2022/04/10 17:28:20;;;;;;;7.38;3.85;;;;;;;;;;6306609;28;20700;-60
2022/04/10 17:31:21;;;;;;;9.60;5.45;;;;;;;;;;6306211;28;20098;-63
2022/04/10 17:34:22;;;;;;;7.95;4.75;;;;;;;;;;6304598;28;20044;-61
2022/04/10 17:37:24;;;;;;;10.88;5.35;;;;;;;;;;6304180;28;20048;-62
2022/04/10 17:43:45;;;;;;;82.50;31.25;;;;;;;;;;6142518;22;20057;-60
2022/04/10 17:46:46;;;;;;;48.63;19.92;;;;;;;;;;6229897;28;20466;-62
2022/04/10 17:49:47;;;;;;;51.00;22.70;;;;;;;;;;6232716;28;20410;-60
2022/04/10 17:52:48;;;;;;;61.38;26.52;;;;;;;;;;6231483;28;20096;-61
2022/04/10 17:55:49;;;;;;;49.45;22.75;;;;;;;;;;6229399;28;20510;-60
2022/04/10 17:58:50;;;;;;;26.50;12.98;;;;;;;;;;6230548;28;20152;-62
2022/04/10 18:01:52;;;;;;;26.27;15.05;;;;;;;;;;6231842;28;20087;-61
2022/04/10 18:04:53;;;;;;;29.60;17.23;;;;;;;;;;6231599;28;21129;-55
2022/04/10 18:07:54;;;;;;;33.70;18.02;;;;;;;;;;6229304;28;20049;-62